sensor_id;sensor_type;location;lat;lon;timestamp;temperature;humidity
45115;DHT22;30877;43.706;10.780;2024-03-23T00:52:28;14.20;96.70
45115;DHT22;30877;43.706;10.780;2024-03-23T00:54:55;14.20;96.70
45115;DHT22;30877;43.706;10.780;2024-03-23T00:57:23;14.10;96.70
45115;DHT22;30877;43.706;10.780;2024-03-23T00:59:50;14.10;96.70
45115;DHT22;30877;43.706;10.780;2024-03-23T01:02:20;14.10;96.70
45115;DHT22;30877;43.706;10.780;2024-03-23T01:04:48;14.10;96.70
45115;DHT22;30877;43.706;10.780;2024-03-23T01:07:15;14.20;96.70
45115;DHT22;30877;43.706;10.780;2024-03-23T01:09:44;14.20;96.70
45115;DHT22;30877;43.706;10.780;2024-03-23T01:12:11;14.20;96.70
45115;DHT22;30877;43.706;10.780;2024-03-23T01:14:40;14.10;96.70
45115;DHT22;30877;43.706;10.780;2024-03-23T01:17:08;14.00;96.70
45115;DHT22;30877;43.706;10.780;2024-03-23T01:19:36;14.00;96.70
45115;DHT22;30877;43.706;10.780;2024-03-23T01:22:04;13.90;96.70
45115;DHT22;30877;43.706;10.780;2024-03-23T01:24:34;13.90;96.70
45115;DHT22;30877;43.706;10.780;2024-03-23T01:27:05;13.90;96.70
45115;DHT22;30877;43.706;10.780;2024-03-23T01:29:34;13.80;96.70
45115;DHT22;30877;43.706;10.780;2024-03-23T01:32:02;13.90;96.70
45115;DHT22;30877;43.706;10.780;2024-03-23T01:34:29;13.90;96.70
45115;DHT22;30877;43.706;10.780;2024-03-23T01:37:00;13.90;96.70
45115;DHT22;30877;43.706;10.780;2024-03-23T01:39:28;13.90;96.70
45115;DHT22;30877;43.706;10.780;2024-03-23T01:41:57;13.90;96.70
45115;DHT22;30877;43.706;10.780;2024-03-23T01:44:28;13.90;96.70
45115;DHT22;30877;43.706;10.780;2024-03-23T01:46:57;14.00;96.70
45115;DHT22;30877;43.706;10.780;2024-03-23T01:49:25;13.80;96.70
45115;DHT22;30877;43.706;10.780;2024-03-23T01:51:54;13.70;96.70
45115;DHT22;30877;43.706;10.780;2024-03-23T01:54:21;13.60;96.70
45115;DHT22;30877;43.706;10.780;2024-03-23T01:56:51;13.60;96.70
45115;DHT22;30877;43.706;10.780;2024-03-23T01:59:19;13.60;96.70
45115;DHT22;30877;43.706;10.780;2024-03-23T02:01:49;13.50;96.70
45115;DHT22;30877;43.706;10.780;2024-03-23T02:04:18;13.60;96.70
45115;DHT22;30877;43.706;10.780;2024-03-23T02:06:45;13.60;96.70
45115;DHT22;30877;43.706;10.780;2024-03-23T02:09:12;13.50;96.70
45115;DHT22;30877;43.706;10.780;2024-03-23T02:11:43;13.30;96.70
45115;DHT22;30877;43.706;10.780;2024-03-23T02:14:12;13.30;96.70
45115;DHT22;30877;43.706;10.780;2024-03-23T02:16:39;13.30;96.70
45115;DHT22;30877;43.706;10.780;2024-03-23T02:19:11;13.30;96.70
45115;DHT22;30877;43.706;10.780;2024-03-23T02:21:40;13.20;96.70
45115;DHT22;30877;43.706;10.780;2024-03-23T02:24:10;13.10;96.70
45115;DHT22;30877;43.706;10.780;2024-03-23T02:26:38;13.10;96.70
45115;DHT22;30877;43.706;10.780;2024-03-23T02:29:07;13.00;96.70
45115;DHT22;30877;43.706;10.780;2024-03-23T02:31:39;13.00;96.70
45115;DHT22;30877;43.706;10.780;2024-03-23T02:34:09;13.00;96.70
45115;DHT22;30877;43.706;10.780;2024-03-23T02:36:37;13.10;96.70
45115;DHT22;30877;43.706;10.780;2024-03-23T02:39:05;13.10;96.70
45115;DHT22;30877;43.706;10.780;2024-03-23T02:41:37;13.10;96.70
45115;DHT22;30877;43.706;10.780;2024-03-23T02:44:05;13.20;96.70
45115;DHT22;30877;43.706;10.780;2024-03-23T02:46:32;13.10;96.70
45115;DHT22;30877;43.706;10.780;2024-03-23T02:49:00;13.00;96.70
45115;DHT22;30877;43.706;10.780;2024-03-23T02:51:27;12.90;96.70
45115;DHT22;30877;43.706;10.780;2024-03-23T02:53:56;13.00;96.70
45115;DHT22;30877;43.706;10.780;2024-03-23T02:56:24;13.00;96.70
45115;DHT22;30877;43.706;10.780;2024-03-23T02:58:58;13.00;96.70
45115;DHT22;30877;43.706;10.780;2024-03-23T03:01:27;13.00;96.70
45115;DHT22;30877;43.706;10.780;2024-03-23T03:03:55;13.00;96.70
45115;DHT22;30877;43.706;10.780;2024-03-23T03:06:24;12.90;96.70
45115;DHT22;30877;43.706;10.780;2024-03-23T03:08:52;12.80;96.70
45115;DHT22;30877;43.706;10.780;2024-03-23T03:11:20;12.80;96.70
45115;DHT22;30877;43.706;10.780;2024-03-23T03:13:47;12.80;96.70
45115;DHT22;30877;43.706;10.780;2024-03-23T03:16:17;12.80;96.70
45115;DHT22;30877;43.706;10.780;2024-03-23T03:18:48;12.90;96.70
45115;DHT22;30877;43.706;10.780;2024-03-23T03:21:17;12.80;96.70
45115;DHT22;30877;43.706;10.780;2024-03-23T03:23:46;12.80;96.70
45115;DHT22;30877;43.706;10.780;2024-03-23T03:26:19;12.90;96.70
45115;DHT22;30877;43.706;10.780;2024-03-23T03:28:46;12.90;96.70
45115;DHT22;30877;43.706;10.780;2024-03-23T03:31:17;12.80;96.70
45115;DHT22;30877;43.706;10.780;2024-03-23T03:33:49;12.80;96.70
45115;DHT22;30877;43.706;10.780;2024-03-23T03:36:18;12.80;96.70
45115;DHT22;30877;43.706;10.780;2024-03-23T03:38:46;12.80;96.70
45115;DHT22;30877;43.706;10.780;2024-03-23T03:41:14;12.70;96.70
45115;DHT22;30877;43.706;10.780;2024-03-23T03:43:42;12.70;96.70
45115;DHT22;30877;43.706;10.780;2024-03-23T03:46:12;12.60;96.70
45115;DHT22;30877;43.706;10.780;2024-03-23T03:48:41;12.60;96.70
45115;DHT22;30877;43.706;10.780;2024-03-23T03:51:09;12.50;96.70
45115;DHT22;30877;43.706;10.780;2024-03-23T03:53:37;12.40;96.70
45115;DHT22;30877;43.706;10.780;2024-03-23T03:56:05;12.40;96.70
45115;DHT22;30877;43.706;10.780;2024-03-23T03:58:34;12.40;96.70
45115;DHT22;30877;43.706;10.780;2024-03-23T04:01:03;12.40;96.70
45115;DHT22;30877;43.706;10.780;2024-03-23T04:03:31;12.40;96.70
45115;DHT22;30877;43.706;10.780;2024-03-23T04:06:00;12.40;96.70
45115;DHT22;30877;43.706;10.780;2024-03-23T04:08:27;12.40;96.70
45115;DHT22;30877;43.706;10.780;2024-03-23T04:10:54;12.30;96.70
45115;DHT22;30877;43.706;10.780;2024-03-23T04:13:22;12.20;96.70
45115;DHT22;30877;43.706;10.780;2024-03-23T04:15:54;12.30;96.70
45115;DHT22;30877;43.706;10.780;2024-03-23T04:18:22;12.30;96.70
45115;DHT22;30877;43.706;10.780;2024-03-23T04:20:50;12.40;96.70
45115;DHT22;30877;43.706;10.780;2024-03-23T04:23:23;12.20;96.70
45115;DHT22;30877;43.706;10.780;2024-03-23T04:25:50;12.20;96.70
45115;DHT22;30877;43.706;10.780;2024-03-23T04:28:21;12.30;96.70
45115;DHT22;30877;43.706;10.780;2024-03-23T04:30:50;12.30;96.70
45115;DHT22;30877;43.706;10.780;2024-03-23T04:33:19;12.30;96.70
45115;DHT22;30877;43.706;10.780;2024-03-23T04:35:49;12.30;96.70
45115;DHT22;30877;43.706;10.780;2024-03-23T04:38:25;12.20;96.70
45115;DHT22;30877;43.706;10.780;2024-03-23T04:40:56;12.20;96.70
45115;DHT22;30877;43.706;10.780;2024-03-23T04:43:23;12.10;96.70
45115;DHT22;30877;43.706;10.780;2024-03-23T04:45:50;12.20;96.70
45115;DHT22;30877;43.706;10.780;2024-03-23T04:48:20;12.10;96.70
45115;DHT22;30877;43.706;10.780;2024-03-23T04:50:55;12.10;96.70
45115;DHT22;30877;43.706;10.780;2024-03-23T04:53:28;12.10;96.70
45115;DHT22;30877;43.706;10.780;2024-03-23T04:55:56;12.00;96.70
45115;DHT22;30877;43.706;10.780;2024-03-23T04:58:23;12.00;96.70
45115;DHT22;30877;43.706;10.780;2024-03-23T05:00:55;12.00;96.70
45115;DHT22;30877;43.706;10.780;2024-03-23T05:03:24;11.90;96.70
45115;DHT22;30877;43.706;10.780;2024-03-23T05:05:54;12.00;96.70
45115;DHT22;30877;43.706;10.780;2024-03-23T05:08:23;12.00;96.70
45115;DHT22;30877;43.706;10.780;2024-03-23T05:10:52;12.10;96.70
45115;DHT22;30877;43.706;10.780;2024-03-23T05:13:20;12.00;96.70
45115;DHT22;30877;43.706;10.780;2024-03-23T05:15:52;12.00;96.70
45115;DHT22;30877;43.706;10.780;2024-03-23T05:18:21;12.00;96.70
45115;DHT22;30877;43.706;10.780;2024-03-23T05:20:49;12.00;96.70
45115;DHT22;30877;43.706;10.780;2024-03-23T05:23:23;12.10;96.70
45115;DHT22;30877;43.706;10.780;2024-03-23T05:25:52;12.00;96.70
45115;DHT22;30877;43.706;10.780;2024-03-23T05:28:20;11.90;96.70
45115;DHT22;30877;43.706;10.780;2024-03-23T05:30:51;11.80;96.70
45115;DHT22;30877;43.706;10.780;2024-03-23T05:33:19;11.80;96.70
45115;DHT22;30877;43.706;10.780;2024-03-23T05:35:56;11.70;96.70
45115;DHT22;30877;43.706;10.780;2024-03-23T05:38:24;11.70;96.70
45115;DHT22;30877;43.706;10.780;2024-03-23T05:40:58;11.80;96.70
45115;DHT22;30877;43.706;10.780;2024-03-23T05:43:26;11.90;96.70
45115;DHT22;30877;43.706;10.780;2024-03-23T05:45:56;11.90;96.70
45115;DHT22;30877;43.706;10.780;2024-03-23T05:48:25;12.00;96.70
45115;DHT22;30877;43.706;10.780;2024-03-23T05:50:53;12.00;96.70
45115;DHT22;30877;43.706;10.780;2024-03-23T05:53:21;12.10;96.70
45115;DHT22;30877;43.706;10.780;2024-03-23T05:55:49;12.10;96.70
45115;DHT22;30877;43.706;10.780;2024-03-23T05:58:18;12.10;96.70
45115;DHT22;30877;43.706;10.780;2024-03-23T06:00:49;12.20;96.70
45115;DHT22;30877;43.706;10.780;2024-03-23T06:03:25;12.20;96.70
45115;DHT22;30877;43.706;10.780;2024-03-23T06:05:52;12.30;96.70
45115;DHT22;30877;43.706;10.780;2024-03-23T06:08:22;12.30;96.70
45115;DHT22;30877;43.706;10.780;2024-03-23T06:10:51;12.40;96.70
45115;DHT22;30877;43.706;10.780;2024-03-23T06:13:21;12.40;96.70
45115;DHT22;30877;43.706;10.780;2024-03-23T06:15:57;12.30;96.70
45115;DHT22;30877;43.706;10.780;2024-03-23T06:18:25;12.40;96.70
45115;DHT22;30877;43.706;10.780;2024-03-23T06:20:54;12.40;96.70
45115;DHT22;30877;43.706;10.780;2024-03-23T06:23:22;12.30;96.70
45115;DHT22;30877;43.706;10.780;2024-03-23T06:25:50;12.20;96.70
45115;DHT22;30877;43.706;10.780;2024-03-23T06:28:22;12.10;96.70
45115;DHT22;30877;43.706;10.780;2024-03-23T06:30:50;12.20;96.70
45115;DHT22;30877;43.706;10.780;2024-03-23T06:33:20;12.40;96.70
45115;DHT22;30877;43.706;10.780;2024-03-23T06:35:50;12.60;96.70
45115;DHT22;30877;43.706;10.780;2024-03-23T06:38:19;12.80;96.70
45115;DHT22;30877;43.706;10.780;2024-03-23T06:40:47;12.70;96.70
45115;DHT22;30877;43.706;10.780;2024-03-23T06:43:15;12.60;96.70
45115;DHT22;30877;43.706;10.780;2024-03-23T06:45:55;12.60;96.70
45115;DHT22;30877;43.706;10.780;2024-03-23T06:48:23;12.60;96.70
45115;DHT22;30877;43.706;10.780;2024-03-23T06:50:56;12.70;96.70
45115;DHT22;30877;43.706;10.780;2024-03-23T06:53:24;12.70;96.70
45115;DHT22;30877;43.706;10.780;2024-03-23T06:55:52;12.70;96.70
45115;DHT22;30877;43.706;10.780;2024-03-23T06:58:23;12.80;96.70
45115;DHT22;30877;43.706;10.780;2024-03-23T07:00:51;12.90;96.70
45115;DHT22;30877;43.706;10.780;2024-03-23T07:03:21;12.90;96.70
45115;DHT22;30877;43.706;10.780;2024-03-23T07:05:50;13.00;96.70
45115;DHT22;30877;43.706;10.780;2024-03-23T07:08:18;13.10;96.70
45115;DHT22;30877;43.706;10.780;2024-03-23T07:10:50;13.20;96.70
45115;DHT22;30877;43.706;10.780;2024-03-23T07:13:18;13.30;96.70
45115;DHT22;30877;43.706;10.780;2024-03-23T07:15:52;13.40;96.70
45115;DHT22;30877;43.706;10.780;2024-03-23T07:18:21;13.40;96.70
45115;DHT22;30877;43.706;10.780;2024-03-23T07:20:53;13.50;96.70
45115;DHT22;30877;43.706;10.780;2024-03-23T07:23:22;13.60;96.70
45115;DHT22;30877;43.706;10.780;2024-03-23T07:26:08;13.60;96.70
45115;DHT22;30877;43.706;10.780;2024-03-23T07:28:36;13.70;96.70
45115;DHT22;30877;43.706;10.780;2024-03-23T07:31:08;13.70;96.70
45115;DHT22;30877;43.706;10.780;2024-03-23T07:33:42;13.80;96.70
45115;DHT22;30877;43.706;10.780;2024-03-23T07:36:10;13.90;96.70
45115;DHT22;30877;43.706;10.780;2024-03-23T07:38:39;14.00;96.70
45115;DHT22;30877;43.706;10.780;2024-03-23T07:41:09;14.10;96.70
45115;DHT22;30877;43.706;10.780;2024-03-23T07:43:38;14.10;96.70
45115;DHT22;30877;43.706;10.780;2024-03-23T07:46:08;14.10;96.70
45115;DHT22;30877;43.706;10.780;2024-03-23T07:48:38;14.20;96.70
45115;DHT22;30877;43.706;10.780;2024-03-23T07:51:10;14.20;96.70
45115;DHT22;30877;43.706;10.780;2024-03-23T07:53:38;14.30;96.70
45115;DHT22;30877;43.706;10.780;2024-03-23T07:56:07;14.40;96.70
45115;DHT22;30877;43.706;10.780;2024-03-23T07:58:35;14.40;96.70
45115;DHT22;30877;43.706;10.780;2024-03-23T08:01:07;14.50;96.70
45115;DHT22;30877;43.706;10.780;2024-03-23T08:03:39;14.60;96.70
45115;DHT22;30877;43.706;10.780;2024-03-23T08:06:10;14.70;96.70
45115;DHT22;30877;43.706;10.780;2024-03-23T08:08:38;14.70;96.70
45115;DHT22;30877;43.706;10.780;2024-03-23T08:11:07;14.70;96.70
45115;DHT22;30877;43.706;10.780;2024-03-23T08:13:35;14.80;96.70
45115;DHT22;30877;43.706;10.780;2024-03-23T08:16:03;14.80;96.70
45115;DHT22;30877;43.706;10.780;2024-03-23T08:18:31;14.90;96.70
45115;DHT22;30877;43.706;10.780;2024-03-23T08:21:02;14.90;96.70
45115;DHT22;30877;43.706;10.780;2024-03-23T08:23:31;14.90;96.70
45115;DHT22;30877;43.706;10.780;2024-03-23T08:26:00;15.10;96.70
45115;DHT22;30877;43.706;10.780;2024-03-23T08:28:29;15.10;96.70
45115;DHT22;30877;43.706;10.780;2024-03-23T08:31:00;15.20;96.70
45115;DHT22;30877;43.706;10.780;2024-03-23T08:33:28;15.30;96.70
45115;DHT22;30877;43.706;10.780;2024-03-23T08:36:01;15.40;96.70
45115;DHT22;30877;43.706;10.780;2024-03-23T08:38:29;15.50;96.70
45115;DHT22;30877;43.706;10.780;2024-03-23T08:40:57;15.70;96.70
45115;DHT22;30877;43.706;10.780;2024-03-23T08:43:25;15.80;96.70
45115;DHT22;30877;43.706;10.780;2024-03-23T08:45:53;16.00;96.70
45115;DHT22;30877;43.706;10.780;2024-03-23T08:48:21;16.20;96.70
45115;DHT22;30877;43.706;10.780;2024-03-23T08:51:01;16.30;96.70
45115;DHT22;30877;43.706;10.780;2024-03-23T08:53:29;16.40;96.70
45115;DHT22;30877;43.706;10.780;2024-03-23T08:55:58;16.40;96.70
45115;DHT22;30877;43.706;10.780;2024-03-23T08:58:26;16.30;96.70
45115;DHT22;30877;43.706;10.780;2024-03-23T09:00:55;16.50;96.70
45115;DHT22;30877;43.706;10.780;2024-03-23T09:03:24;16.60;96.70
45115;DHT22;30877;43.706;10.780;2024-03-23T09:05:53;16.50;96.70
45115;DHT22;30877;43.706;10.780;2024-03-23T09:08:24;16.50;96.70
45115;DHT22;30877;43.706;10.780;2024-03-23T09:10:52;16.40;96.70
45115;DHT22;30877;43.706;10.780;2024-03-23T09:13:20;16.50;96.70
45115;DHT22;30877;43.706;10.780;2024-03-23T09:15:49;16.70;96.70
45115;DHT22;30877;43.706;10.780;2024-03-23T09:18:17;16.90;96.70
45115;DHT22;30877;43.706;10.780;2024-03-23T09:20:46;17.10;96.70
45115;DHT22;30877;43.706;10.780;2024-03-23T09:23:14;17.10;96.70
45115;DHT22;30877;43.706;10.780;2024-03-23T09:25:44;17.20;96.70
45115;DHT22;30877;43.706;10.780;2024-03-23T09:28:11;17.10;96.70
45115;DHT22;30877;43.706;10.780;2024-03-23T09:30:40;17.10;96.70
45115;DHT22;30877;43.706;10.780;2024-03-23T09:33:12;17.00;96.70
45115;DHT22;30877;43.706;10.780;2024-03-23T09:35:40;17.00;96.70
45115;DHT22;30877;43.706;10.780;2024-03-23T09:38:08;17.00;96.70
45115;DHT22;30877;43.706;10.780;2024-03-23T09:40:41;17.20;96.70
45115;DHT22;30877;43.706;10.780;2024-03-23T09:43:13;17.40;96.70
45115;DHT22;30877;43.706;10.780;2024-03-23T09:45:41;17.50;96.70
45115;DHT22;30877;43.706;10.780;2024-03-23T09:48:10;17.70;96.70
45115;DHT22;30877;43.706;10.780;2024-03-23T09:50:37;17.90;96.70
45115;DHT22;30877;43.706;10.780;2024-03-23T09:53:07;17.80;96.70
45115;DHT22;30877;43.706;10.780;2024-03-23T09:55:36;17.60;96.70
45115;DHT22;30877;43.706;10.780;2024-03-23T09:58:05;17.50;96.70
45115;DHT22;30877;43.706;10.780;2024-03-23T10:00:35;17.50;96.70
45115;DHT22;30877;43.706;10.780;2024-03-23T10:03:03;17.40;96.70
45115;DHT22;30877;43.706;10.780;2024-03-23T10:05:32;17.50;96.70
45115;DHT22;30877;43.706;10.780;2024-03-23T10:08:17;17.40;96.70
45115;DHT22;30877;43.706;10.780;2024-03-23T10:10:47;17.40;96.70
45115;DHT22;30877;43.706;10.780;2024-03-23T10:13:24;17.40;96.70
45115;DHT22;30877;43.706;10.780;2024-03-23T10:15:58;17.50;96.70
45115;DHT22;30877;43.706;10.780;2024-03-23T10:18:26;17.60;96.70
45115;DHT22;30877;43.706;10.780;2024-03-23T10:21:07;17.60;96.70
45115;DHT22;30877;43.706;10.780;2024-03-23T10:23:37;17.50;96.70
45115;DHT22;30877;43.706;10.780;2024-03-23T10:26:18;17.40;96.70
45115;DHT22;30877;43.706;10.780;2024-03-23T10:28:53;17.50;96.70
45115;DHT22;30877;43.706;10.780;2024-03-23T10:31:24;17.50;96.70
45115;DHT22;30877;43.706;10.780;2024-03-23T10:33:52;17.60;96.70
45115;DHT22;30877;43.706;10.780;2024-03-23T10:36:24;17.60;96.70
45115;DHT22;30877;43.706;10.780;2024-03-23T10:38:54;17.60;96.70
45115;DHT22;30877;43.706;10.780;2024-03-23T10:41:22;17.60;96.70
45115;DHT22;30877;43.706;10.780;2024-03-23T10:43:51;17.60;96.70
45115;DHT22;30877;43.706;10.780;2024-03-23T10:46:19;17.60;96.70
45115;DHT22;30877;43.706;10.780;2024-03-23T10:48:49;17.70;96.70
45115;DHT22;30877;43.706;10.780;2024-03-23T10:51:17;17.70;96.70
45115;DHT22;30877;43.706;10.780;2024-03-23T10:53:46;17.70;96.70
45115;DHT22;30877;43.706;10.780;2024-03-23T10:56:15;17.80;96.70
45115;DHT22;30877;43.706;10.780;2024-03-23T10:58:47;17.60;96.70
45115;DHT22;30877;43.706;10.780;2024-03-23T11:01:18;17.60;96.70
45115;DHT22;30877;43.706;10.780;2024-03-23T11:03:49;17.70;96.70
45115;DHT22;30877;43.706;10.780;2024-03-23T11:06:35;17.60;96.70
45115;DHT22;30877;43.706;10.780;2024-03-23T11:09:05;17.60;96.70
45115;DHT22;30877;43.706;10.780;2024-03-23T11:11:54;17.50;96.70
45115;DHT22;30877;43.706;10.780;2024-03-23T11:14:23;17.40;96.70
45115;DHT22;30877;43.706;10.780;2024-03-23T11:17:08;17.40;96.70
45115;DHT22;30877;43.706;10.780;2024-03-23T11:19:38;17.30;96.70
45115;DHT22;30877;43.706;10.780;2024-03-23T11:22:06;17.30;96.70
45115;DHT22;30877;43.706;10.780;2024-03-23T11:24:36;17.20;96.70
45115;DHT22;30877;43.706;10.780;2024-03-23T11:27:16;17.20;96.70
45115;DHT22;30877;43.706;10.780;2024-03-23T11:29:44;17.20;96.70
45115;DHT22;30877;43.706;10.780;2024-03-23T11:32:12;17.20;96.70
45115;DHT22;30877;43.706;10.780;2024-03-23T11:34:44;17.20;96.70
45115;DHT22;30877;43.706;10.780;2024-03-23T11:37:15;17.30;96.70
45115;DHT22;30877;43.706;10.780;2024-03-23T11:39:45;17.40;96.70
45115;DHT22;30877;43.706;10.780;2024-03-23T11:42:18;17.60;96.70
45115;DHT22;30877;43.706;10.780;2024-03-23T11:44:51;17.70;96.70
45115;DHT22;30877;43.706;10.780;2024-03-23T11:47:19;17.90;96.70
45115;DHT22;30877;43.706;10.780;2024-03-23T11:49:50;18.10;96.70
45115;DHT22;30877;43.706;10.780;2024-03-23T11:52:21;18.20;96.70
45115;DHT22;30877;43.706;10.780;2024-03-23T11:54:49;18.40;96.70
45115;DHT22;30877;43.706;10.780;2024-03-23T11:57:17;18.80;96.70
45115;DHT22;30877;43.706;10.780;2024-03-23T11:59:44;19.00;96.70
45115;DHT22;30877;43.706;10.780;2024-03-23T12:02:14;19.00;96.70
45115;DHT22;30877;43.706;10.780;2024-03-23T12:04:45;19.10;96.70
45115;DHT22;30877;43.706;10.780;2024-03-23T12:07:18;19.00;96.70
45115;DHT22;30877;43.706;10.780;2024-03-23T12:10:02;18.80;96.70
45115;DHT22;30877;43.706;10.780;2024-03-23T12:12:31;18.70;96.70
45115;DHT22;30877;43.706;10.780;2024-03-23T12:15:02;18.50;96.70
45115;DHT22;30877;43.706;10.780;2024-03-23T12:17:30;18.30;96.70
45115;DHT22;30877;43.706;10.780;2024-03-23T12:19:58;18.40;96.70
45115;DHT22;30877;43.706;10.780;2024-03-23T12:22:28;18.30;96.70
45115;DHT22;30877;43.706;10.780;2024-03-23T12:24:59;18.20;96.70
45115;DHT22;30877;43.706;10.780;2024-03-23T12:27:27;18.10;96.70
45115;DHT22;30877;43.706;10.780;2024-03-23T12:29:57;18.10;96.70
45115;DHT22;30877;43.706;10.780;2024-03-23T12:32:25;18.10;96.70
45115;DHT22;30877;43.706;10.780;2024-03-23T12:34:53;18.20;96.70
45115;DHT22;30877;43.706;10.780;2024-03-23T12:37:22;18.20;96.70
45115;DHT22;30877;43.706;10.780;2024-03-23T12:39:53;18.20;96.70
45115;DHT22;30877;43.706;10.780;2024-03-23T12:42:21;18.10;96.70
45115;DHT22;30877;43.706;10.780;2024-03-23T12:44:48;18.10;96.70
45115;DHT22;30877;43.706;10.780;2024-03-23T12:47:16;18.00;96.70
45115;DHT22;30877;43.706;10.780;2024-03-23T12:49:45;17.90;96.70
45115;DHT22;30877;43.706;10.780;2024-03-23T12:52:13;17.80;96.70
45115;DHT22;30877;43.706;10.780;2024-03-23T12:54:44;17.80;96.70
45115;DHT22;30877;43.706;10.780;2024-03-23T12:57:13;17.80;96.70
45115;DHT22;30877;43.706;10.780;2024-03-23T12:59:41;17.90;96.70
45115;DHT22;30877;43.706;10.780;2024-03-23T13:02:09;17.80;96.70
45115;DHT22;30877;43.706;10.780;2024-03-23T13:04:38;17.80;96.70
45115;DHT22;30877;43.706;10.780;2024-03-23T13:07:05;17.90;96.70
45115;DHT22;30877;43.706;10.780;2024-03-23T13:09:35;18.10;96.70
45115;DHT22;30877;43.706;10.780;2024-03-23T13:12:03;18.20;96.70
45115;DHT22;30877;43.706;10.780;2024-03-23T13:14:34;18.20;96.70
45115;DHT22;30877;43.706;10.780;2024-03-23T13:17:02;18.20;96.70
45115;DHT22;30877;43.706;10.780;2024-03-23T13:19:31;18.10;96.70
45115;DHT22;30877;43.706;10.780;2024-03-23T13:22:00;18.10;96.70
45115;DHT22;30877;43.706;10.780;2024-03-23T13:24:28;18.00;96.70
45115;DHT22;30877;43.706;10.780;2024-03-23T13:26:58;17.90;96.70
45115;DHT22;30877;43.706;10.780;2024-03-23T13:29:27;17.80;96.70
45115;DHT22;30877;43.706;10.780;2024-03-23T13:31:56;17.80;96.70
45115;DHT22;30877;43.706;10.780;2024-03-23T13:34:23;17.80;96.70
45115;DHT22;30877;43.706;10.780;2024-03-23T13:36:51;17.90;96.70
45115;DHT22;30877;43.706;10.780;2024-03-23T13:39:19;17.80;96.70
45115;DHT22;30877;43.706;10.780;2024-03-23T13:41:46;17.80;96.70
45115;DHT22;30877;43.706;10.780;2024-03-23T13:44:14;17.70;96.70
45115;DHT22;30877;43.706;10.780;2024-03-23T13:46:43;17.70;96.70
45115;DHT22;30877;43.706;10.780;2024-03-23T13:49:26;17.60;96.70
45115;DHT22;30877;43.706;10.780;2024-03-23T13:51:56;17.60;96.70
45115;DHT22;30877;43.706;10.780;2024-03-23T13:54:26;17.60;96.70
45115;DHT22;30877;43.706;10.780;2024-03-23T13:56:54;17.60;96.70
45115;DHT22;30877;43.706;10.780;2024-03-23T13:59:22;17.60;96.70
45115;DHT22;30877;43.706;10.780;2024-03-23T14:01:51;17.60;96.70
45115;DHT22;30877;43.706;10.780;2024-03-23T14:04:21;17.50;96.70
45115;DHT22;30877;43.706;10.780;2024-03-23T14:06:50;17.60;96.70
45115;DHT22;30877;43.706;10.780;2024-03-23T14:09:17;17.70;96.70
45115;DHT22;30877;43.706;10.780;2024-03-23T14:11:50;17.80;96.70
45115;DHT22;30877;43.706;10.780;2024-03-23T14:14:18;17.70;96.70
45115;DHT22;30877;43.706;10.780;2024-03-23T14:16:45;17.60;96.70
45115;DHT22;30877;43.706;10.780;2024-03-23T14:19:13;17.60;96.70
45115;DHT22;30877;43.706;10.780;2024-03-23T14:21:42;17.50;96.70
45115;DHT22;30877;43.706;10.780;2024-03-23T14:24:09;17.50;96.70
45115;DHT22;30877;43.706;10.780;2024-03-23T14:26:37;17.40;96.70
45115;DHT22;30877;43.706;10.780;2024-03-23T14:29:06;17.40;96.70
45115;DHT22;30877;43.706;10.780;2024-03-23T14:31:35;17.40;96.70
45115;DHT22;30877;43.706;10.780;2024-03-23T14:34:03;17.30;96.70
45115;DHT22;30877;43.706;10.780;2024-03-23T14:36:30;17.30;96.70
45115;DHT22;30877;43.706;10.780;2024-03-23T14:39:00;17.40;96.70
45115;DHT22;30877;43.706;10.780;2024-03-23T14:41:29;17.60;96.70
45115;DHT22;30877;43.706;10.780;2024-03-23T14:43:57;17.80;96.70
45115;DHT22;30877;43.706;10.780;2024-03-23T14:46:25;18.30;96.70
45115;DHT22;30877;43.706;10.780;2024-03-23T14:48:52;18.50;96.70
45115;DHT22;30877;43.706;10.780;2024-03-23T14:51:21;18.50;96.70
45115;DHT22;30877;43.706;10.780;2024-03-23T14:53:48;18.60;96.70
45115;DHT22;30877;43.706;10.780;2024-03-23T14:56:17;18.60;96.70
45115;DHT22;30877;43.706;10.780;2024-03-23T14:58:45;18.80;96.70
45115;DHT22;30877;43.706;10.780;2024-03-23T15:01:14;18.90;96.70
45115;DHT22;30877;43.706;10.780;2024-03-23T15:03:43;18.80;96.70
45115;DHT22;30877;43.706;10.780;2024-03-23T15:06:13;18.70;96.70
45115;DHT22;30877;43.706;10.780;2024-03-23T15:08:44;18.60;96.70
45115;DHT22;30877;43.706;10.780;2024-03-23T15:11:13;18.50;96.70
45115;DHT22;30877;43.706;10.780;2024-03-23T15:13:44;18.30;96.70
45115;DHT22;30877;43.706;10.780;2024-03-23T15:16:17;18.10;96.70
45115;DHT22;30877;43.706;10.780;2024-03-23T15:18:47;18.00;96.70
45115;DHT22;30877;43.706;10.780;2024-03-23T15:21:15;17.90;96.70
45115;DHT22;30877;43.706;10.780;2024-03-23T15:23:47;17.80;96.70
45115;DHT22;30877;43.706;10.780;2024-03-23T15:26:16;17.80;96.70
45115;DHT22;30877;43.706;10.780;2024-03-23T15:28:48;17.80;96.70
45115;DHT22;30877;43.706;10.780;2024-03-23T15:31:25;17.80;96.70
45115;DHT22;30877;43.706;10.780;2024-03-23T15:33:53;17.80;96.70
45115;DHT22;30877;43.706;10.780;2024-03-23T15:36:20;17.70;96.70
45115;DHT22;30877;43.706;10.780;2024-03-23T15:38:49;17.80;96.70
45115;DHT22;30877;43.706;10.780;2024-03-23T15:41:17;17.80;96.70
45115;DHT22;30877;43.706;10.780;2024-03-23T15:43:48;17.90;96.70
45115;DHT22;30877;43.706;10.780;2024-03-23T15:46:16;17.90;96.70
45115;DHT22;30877;43.706;10.780;2024-03-23T15:48:45;17.90;96.70
45115;DHT22;30877;43.706;10.780;2024-03-23T15:51:14;17.90;96.70
45115;DHT22;30877;43.706;10.780;2024-03-23T15:53:41;17.80;96.70
45115;DHT22;30877;43.706;10.780;2024-03-23T15:56:10;17.80;96.70
45115;DHT22;30877;43.706;10.780;2024-03-23T15:58:39;17.80;96.70
45115;DHT22;30877;43.706;10.780;2024-03-23T16:01:09;17.80;96.70
45115;DHT22;30877;43.706;10.780;2024-03-23T16:03:37;17.80;96.70
45115;DHT22;30877;43.706;10.780;2024-03-23T16:06:06;17.70;96.70
45115;DHT22;30877;43.706;10.780;2024-03-23T16:08:35;17.60;96.70
45115;DHT22;30877;43.706;10.780;2024-03-23T16:11:04;17.60;96.70
45115;DHT22;30877;43.706;10.780;2024-03-23T16:13:33;17.60;96.70
45115;DHT22;30877;43.706;10.780;2024-03-23T16:16:03;17.60;96.70
45115;DHT22;30877;43.706;10.780;2024-03-23T16:18:33;17.60;96.70
45115;DHT22;30877;43.706;10.780;2024-03-23T16:21:02;17.60;96.70